sensor_id;sensor_type;location;lat;lon;timestamp;temperature;humidity
5870;DHT22;2961;47.702;9.410;2023-07-02T00:01:35;17.00;99.90
5870;DHT22;2961;47.702;9.410;2023-07-02T00:04:02;17.00;99.90
5870;DHT22;2961;47.702;9.410;2023-07-02T00:06:28;16.90;99.90
5870;DHT22;2961;47.702;9.410;2023-07-02T00:08:59;17.00;99.90
5870;DHT22;2961;47.702;9.410;2023-07-02T00:11:26;16.90;99.90
5870;DHT22;2961;47.702;9.410;2023-07-02T00:13:53;17.00;99.90
5870;DHT22;2961;47.702;9.410;2023-07-02T00:16:19;16.90;99.90
5870;DHT22;2961;47.702;9.410;2023-07-02T00:18:46;16.90;99.90
5870;DHT22;2961;47.702;9.410;2023-07-02T00:21:13;16.90;99.90
5870;DHT22;2961;47.702;9.410;2023-07-02T00:23:40;16.90;99.90
5870;DHT22;2961;47.702;9.410;2023-07-02T00:26:08;17.00;99.90
5870;DHT22;2961;47.702;9.410;2023-07-02T00:28:35;16.90;99.90
5870;DHT22;2961;47.702;9.410;2023-07-02T00:31:02;16.90;99.90
5870;DHT22;2961;47.702;9.410;2023-07-02T00:33:31;16.90;99.90
5870;DHT22;2961;47.702;9.410;2023-07-02T00:35:57;17.00;99.90
5870;DHT22;2961;47.702;9.410;2023-07-02T00:38:26;16.90;99.90
5870;DHT22;2961;47.702;9.410;2023-07-02T00:40:53;16.90;99.90
5870;DHT22;2961;47.702;9.410;2023-07-02T00:43:21;16.90;99.90
5870;DHT22;2961;47.702;9.410;2023-07-02T00:45:47;16.90;99.90
5870;DHT22;2961;47.702;9.410;2023-07-02T00:48:15;16.90;99.90
5870;DHT22;2961;47.702;9.410;2023-07-02T00:50:41;16.90;99.90
5870;DHT22;2961;47.702;9.410;2023-07-02T00:53:08;16.90;99.90
5870;DHT22;2961;47.702;9.410;2023-07-02T00:55:35;16.90;99.90
5870;DHT22;2961;47.702;9.410;2023-07-02T00:58:02;16.90;99.90
5870;DHT22;2961;47.702;9.410;2023-07-02T01:00:30;16.80;99.90
5870;DHT22;2961;47.702;9.410;2023-07-02T01:02:57;16.80;99.90
5870;DHT22;2961;47.702;9.410;2023-07-02T01:05:25;16.80;99.90
5870;DHT22;2961;47.702;9.410;2023-07-02T01:07:57;16.80;99.90
5870;DHT22;2961;47.702;9.410;2023-07-02T01:10:24;16.70;99.90
5870;DHT22;2961;47.702;9.410;2023-07-02T01:12:52;16.70;99.90
5870;DHT22;2961;47.702;9.410;2023-07-02T01:15:19;16.70;99.90
5870;DHT22;2961;47.702;9.410;2023-07-02T01:17:48;16.70;99.90
5870;DHT22;2961;47.702;9.410;2023-07-02T01:20:16;16.60;99.90
5870;DHT22;2961;47.702;9.410;2023-07-02T01:22:46;16.60;99.90
5870;DHT22;2961;47.702;9.410;2023-07-02T01:25:17;16.60;99.90
5870;DHT22;2961;47.702;9.410;2023-07-02T01:27:44;16.60;99.90
5870;DHT22;2961;47.702;9.410;2023-07-02T01:30:11;16.60;99.90
5870;DHT22;2961;47.702;9.410;2023-07-02T01:32:38;16.50;99.90
5870;DHT22;2961;47.702;9.410;2023-07-02T01:35:06;16.50;99.90
5870;DHT22;2961;47.702;9.410;2023-07-02T01:37:34;16.50;99.90
5870;DHT22;2961;47.702;9.410;2023-07-02T01:40:03;16.50;99.90
5870;DHT22;2961;47.702;9.410;2023-07-02T01:42:32;16.50;99.90
5870;DHT22;2961;47.702;9.410;2023-07-02T01:44:59;16.60;99.90
5870;DHT22;2961;47.702;9.410;2023-07-02T01:47:26;16.50;99.90
5870;DHT22;2961;47.702;9.410;2023-07-02T01:49:52;16.50;99.90
5870;DHT22;2961;47.702;9.410;2023-07-02T01:52:19;16.50;99.90
5870;DHT22;2961;47.702;9.410;2023-07-02T01:54:47;16.60;99.90
5870;DHT22;2961;47.702;9.410;2023-07-02T01:57:14;16.60;99.90
5870;DHT22;2961;47.702;9.410;2023-07-02T01:59:41;16.60;99.90
5870;DHT22;2961;47.702;9.410;2023-07-02T02:02:08;16.60;99.90
5870;DHT22;2961;47.702;9.410;2023-07-02T02:04:34;16.60;99.90
5870;DHT22;2961;47.702;9.410;2023-07-02T02:07:01;16.60;99.90
5870;DHT22;2961;47.702;9.410;2023-07-02T02:09:28;16.60;99.90
5870;DHT22;2961;47.702;9.410;2023-07-02T02:11:59;16.60;99.90
5870;DHT22;2961;47.702;9.410;2023-07-02T02:14:26;16.70;99.90
5870;DHT22;2961;47.702;9.410;2023-07-02T02:16:52;16.70;99.90
5870;DHT22;2961;47.702;9.410;2023-07-02T02:19:20;16.70;99.90
5870;DHT22;2961;47.702;9.410;2023-07-02T02:21:47;16.70;99.90
5870;DHT22;2961;47.702;9.410;2023-07-02T02:24:15;16.70;99.90
5870;DHT22;2961;47.702;9.410;2023-07-02T02:26:42;16.80;99.90
5870;DHT22;2961;47.702;9.410;2023-07-02T02:29:10;16.80;99.90
5870;DHT22;2961;47.702;9.410;2023-07-02T02:31:36;16.80;99.90
5870;DHT22;2961;47.702;9.410;2023-07-02T02:34:03;16.80;99.90
5870;DHT22;2961;47.702;9.410;2023-07-02T02:36:30;16.80;99.90
5870;DHT22;2961;47.702;9.410;2023-07-02T02:38:58;16.80;99.90
5870;DHT22;2961;47.702;9.410;2023-07-02T02:41:24;16.80;99.90
5870;DHT22;2961;47.702;9.410;2023-07-02T02:43:51;16.80;99.90
5870;DHT22;2961;47.702;9.410;2023-07-02T02:46:21;16.90;99.90
5870;DHT22;2961;47.702;9.410;2023-07-02T02:48:48;16.90;99.90
5870;DHT22;2961;47.702;9.410;2023-07-02T02:51:15;16.90;99.90
5870;DHT22;2961;47.702;9.410;2023-07-02T02:53:42;16.90;99.90
5870;DHT22;2961;47.702;9.410;2023-07-02T02:56:08;16.90;99.90
5870;DHT22;2961;47.702;9.410;2023-07-02T02:58:35;16.90;99.90
5870;DHT22;2961;47.702;9.410;2023-07-02T03:01:02;16.90;99.90
5870;DHT22;2961;47.702;9.410;2023-07-02T03:03:50;17.00;99.90
5870;DHT22;2961;47.702;9.410;2023-07-02T03:06:17;16.90;99.90
5870;DHT22;2961;47.702;9.410;2023-07-02T03:08:43;16.90;99.90
5870;DHT22;2961;47.702;9.410;2023-07-02T03:11:10;17.00;99.90
5870;DHT22;2961;47.702;9.410;2023-07-02T03:13:37;17.00;99.90
5870;DHT22;2961;47.702;9.410;2023-07-02T03:16:04;17.00;99.90
5870;DHT22;2961;47.702;9.410;2023-07-02T03:18:31;17.00;99.90
5870;DHT22;2961;47.702;9.410;2023-07-02T03:20:59;17.10;99.90
5870;DHT22;2961;47.702;9.410;2023-07-02T03:23:26;17.00;99.90
5870;DHT22;2961;47.702;9.410;2023-07-02T03:25:52;17.00;99.90
5870;DHT22;2961;47.702;9.410;2023-07-02T03:28:19;17.10;99.90
5870;DHT22;2961;47.702;9.410;2023-07-02T03:30:46;17.10;99.90
5870;DHT22;2961;47.702;9.410;2023-07-02T03:33:13;17.10;99.90
5870;DHT22;2961;47.702;9.410;2023-07-02T03:35:40;17.00;99.90
5870;DHT22;2961;47.702;9.410;2023-07-02T03:38:08;16.90;99.90
5870;DHT22;2961;47.702;9.410;2023-07-02T03:40:34;16.90;99.90
5870;DHT22;2961;47.702;9.410;2023-07-02T03:43:01;16.80;99.90
5870;DHT22;2961;47.702;9.410;2023-07-02T03:45:28;16.80;99.90
5870;DHT22;2961;47.702;9.410;2023-07-02T03:47:55;16.80;99.90
5870;DHT22;2961;47.702;9.410;2023-07-02T03:50:22;16.80;99.90
5870;DHT22;2961;47.702;9.410;2023-07-02T03:52:48;16.80;99.90
5870;DHT22;2961;47.702;9.410;2023-07-02T03:55:17;16.80;99.90
5870;DHT22;2961;47.702;9.410;2023-07-02T03:57:43;16.80;99.90
5870;DHT22;2961;47.702;9.410;2023-07-02T04:00:11;16.70;99.90
5870;DHT22;2961;47.702;9.410;2023-07-02T04:02:38;16.70;99.90
5870;DHT22;2961;47.702;9.410;2023-07-02T04:05:05;16.70;99.90
5870;DHT22;2961;47.702;9.410;2023-07-02T04:07:32;16.80;99.90
5870;DHT22;2961;47.702;9.410;2023-07-02T04:09:59;16.70;99.90
5870;DHT22;2961;47.702;9.410;2023-07-02T04:12:27;16.80;99.90
5870;DHT22;2961;47.702;9.410;2023-07-02T04:14:54;16.70;99.90
5870;DHT22;2961;47.702;9.410;2023-07-02T04:17:21;16.70;99.90
5870;DHT22;2961;47.702;9.410;2023-07-02T04:19:47;16.70;99.90
5870;DHT22;2961;47.702;9.410;2023-07-02T04:22:14;16.70;99.90
5870;DHT22;2961;47.702;9.410;2023-07-02T04:24:41;16.60;99.90
5870;DHT22;2961;47.702;9.410;2023-07-02T04:27:08;16.60;99.90
5870;DHT22;2961;47.702;9.410;2023-07-02T04:29:36;16.60;99.90
5870;DHT22;2961;47.702;9.410;2023-07-02T04:32:03;16.60;99.90
5870;DHT22;2961;47.702;9.410;2023-07-02T04:34:30;16.60;99.90
5870;DHT22;2961;47.702;9.410;2023-07-02T04:36:57;16.60;99.90
5870;DHT22;2961;47.702;9.410;2023-07-02T04:39:23;16.70;99.90
5870;DHT22;2961;47.702;9.410;2023-07-02T04:41:50;16.60;99.90
5870;DHT22;2961;47.702;9.410;2023-07-02T04:44:18;16.60;99.90
5870;DHT22;2961;47.702;9.410;2023-07-02T04:46:53;16.60;99.90
5870;DHT22;2961;47.702;9.410;2023-07-02T04:49:20;16.60;99.90
5870;DHT22;2961;47.702;9.410;2023-07-02T04:51:47;16.60;99.90
5870;DHT22;2961;47.702;9.410;2023-07-02T04:54:13;16.60;99.90
5870;DHT22;2961;47.702;9.410;2023-07-02T04:56:40;16.60;99.90
5870;DHT22;2961;47.702;9.410;2023-07-02T04:59:07;16.70;99.90
5870;DHT22;2961;47.702;9.410;2023-07-02T05:01:34;16.70;99.90
5870;DHT22;2961;47.702;9.410;2023-07-02T05:04:02;16.70;99.90
5870;DHT22;2961;47.702;9.410;2023-07-02T05:06:29;16.70;99.90
5870;DHT22;2961;47.702;9.410;2023-07-02T05:08:55;16.70;99.90
5870;DHT22;2961;47.702;9.410;2023-07-02T05:11:22;16.70;99.90
5870;DHT22;2961;47.702;9.410;2023-07-02T05:13:49;16.70;99.90
5870;DHT22;2961;47.702;9.410;2023-07-02T05:16:16;16.70;99.90
5870;DHT22;2961;47.702;9.410;2023-07-02T05:18:43;16.70;99.90
5870;DHT22;2961;47.702;9.410;2023-07-02T05:21:11;16.70;99.90
5870;DHT22;2961;47.702;9.410;2023-07-02T05:23:38;16.70;99.90
5870;DHT22;2961;47.702;9.410;2023-07-02T05:26:05;16.70;99.90
5870;DHT22;2961;47.702;9.410;2023-07-02T05:28:31;16.70;99.90
5870;DHT22;2961;47.702;9.410;2023-07-02T05:30:58;16.80;99.90
5870;DHT22;2961;47.702;9.410;2023-07-02T05:33:25;16.90;99.90
5870;DHT22;2961;47.702;9.410;2023-07-02T05:35:52;17.00;99.90
5870;DHT22;2961;47.702;9.410;2023-07-02T05:38:21;17.00;99.90
5870;DHT22;2961;47.702;9.410;2023-07-02T05:40:47;17.00;99.90
5870;DHT22;2961;47.702;9.410;2023-07-02T05:43:14;17.00;99.90
5870;DHT22;2961;47.702;9.410;2023-07-02T05:45:41;17.10;99.90
5870;DHT22;2961;47.702;9.410;2023-07-02T05:48:08;17.10;99.90
5870;DHT22;2961;47.702;9.410;2023-07-02T05:50:34;17.20;99.90
5870;DHT22;2961;47.702;9.410;2023-07-02T05:53:01;17.10;99.90
5870;DHT22;2961;47.702;9.410;2023-07-02T05:55:29;17.20;99.90
5870;DHT22;2961;47.702;9.410;2023-07-02T05:57:56;17.20;99.90
5870;DHT22;2961;47.702;9.410;2023-07-02T06:00:27;17.20;99.90
5870;DHT22;2961;47.702;9.410;2023-07-02T06:02:53;17.30;99.90
5870;DHT22;2961;47.702;9.410;2023-07-02T06:05:20;17.30;99.90
5870;DHT22;2961;47.702;9.410;2023-07-02T06:07:47;17.30;99.90
5870;DHT22;2961;47.702;9.410;2023-07-02T06:10:14;17.30;99.90
5870;DHT22;2961;47.702;9.410;2023-07-02T06:12:42;17.30;99.90
5870;DHT22;2961;47.702;9.410;2023-07-02T06:15:10;17.40;99.90
5870;DHT22;2961;47.702;9.410;2023-07-02T06:17:37;17.40;99.90
5870;DHT22;2961;47.702;9.410;2023-07-02T06:20:05;17.50;99.90
5870;DHT22;2961;47.702;9.410;2023-07-02T06:22:32;17.60;99.90
5870;DHT22;2961;47.702;9.410;2023-07-02T06:24:59;17.60;99.90
5870;DHT22;2961;47.702;9.410;2023-07-02T06:27:25;17.70;99.90
5870;DHT22;2961;47.702;9.410;2023-07-02T06:29:53;17.80;99.90
5870;DHT22;2961;47.702;9.410;2023-07-02T06:32:20;17.70;99.90
5870;DHT22;2961;47.702;9.410;2023-07-02T06:34:47;17.80;99.90
5870;DHT22;2961;47.702;9.410;2023-07-02T06:37:17;17.80;99.90
5870;DHT22;2961;47.702;9.410;2023-07-02T06:39:44;17.90;99.90
5870;DHT22;2961;47.702;9.410;2023-07-02T06:42:17;18.10;99.90
5870;DHT22;2961;47.702;9.410;2023-07-02T06:44:44;18.20;99.90
5870;DHT22;2961;47.702;9.410;2023-07-02T06:47:12;18.30;99.90
5870;DHT22;2961;47.702;9.410;2023-07-02T06:49:39;18.40;99.90
5870;DHT22;2961;47.702;9.410;2023-07-02T06:52:06;18.60;99.90
5870;DHT22;2961;47.702;9.410;2023-07-02T06:54:32;18.70;99.90
5870;DHT22;2961;47.702;9.410;2023-07-02T06:57:00;18.70;99.90
5870;DHT22;2961;47.702;9.410;2023-07-02T06:59:36;18.90;99.90
5870;DHT22;2961;47.702;9.410;2023-07-02T07:02:03;19.00;99.90
5870;DHT22;2961;47.702;9.410;2023-07-02T07:04:31;19.00;99.90
5870;DHT22;2961;47.702;9.410;2023-07-02T07:07:00;19.00;99.90
5870;DHT22;2961;47.702;9.410;2023-07-02T07:09:28;18.90;99.90
5870;DHT22;2961;47.702;9.410;2023-07-02T07:11:55;18.90;99.90
5870;DHT22;2961;47.702;9.410;2023-07-02T07:14:21;18.80;99.90
5870;DHT22;2961;47.702;9.410;2023-07-02T07:16:49;18.80;99.90
5870;DHT22;2961;47.702;9.410;2023-07-02T07:19:16;18.80;99.90
5870;DHT22;2961;47.702;9.410;2023-07-02T07:21:44;18.70;99.90
5870;DHT22;2961;47.702;9.410;2023-07-02T07:24:11;18.60;99.90
5870;DHT22;2961;47.702;9.410;2023-07-02T07:26:38;18.50;99.90
5870;DHT22;2961;47.702;9.410;2023-07-02T07:29:05;18.50;99.90
5870;DHT22;2961;47.702;9.410;2023-07-02T07:31:31;18.50;99.90
5870;DHT22;2961;47.702;9.410;2023-07-02T07:33:58;18.60;99.90
5870;DHT22;2961;47.702;9.410;2023-07-02T07:36:25;18.60;99.90
5870;DHT22;2961;47.702;9.410;2023-07-02T07:38:53;18.70;99.90
5870;DHT22;2961;47.702;9.410;2023-07-02T07:41:20;18.70;99.90
5870;DHT22;2961;47.702;9.410;2023-07-02T07:43:46;18.70;99.90
5870;DHT22;2961;47.702;9.410;2023-07-02T07:46:13;18.70;99.90
5870;DHT22;2961;47.702;9.410;2023-07-02T07:48:40;18.70;99.90
5870;DHT22;2961;47.702;9.410;2023-07-02T07:51:07;18.70;99.90
5870;DHT22;2961;47.702;9.410;2023-07-02T07:53:37;18.70;99.90
5870;DHT22;2961;47.702;9.410;2023-07-02T07:56:05;18.70;99.90
5870;DHT22;2961;47.702;9.410;2023-07-02T07:58:32;18.70;99.90
5870;DHT22;2961;47.702;9.410;2023-07-02T08:00:59;18.70;99.90
5870;DHT22;2961;47.702;9.410;2023-07-02T08:03:26;18.70;99.90
5870;DHT22;2961;47.702;9.410;2023-07-02T08:05:53;18.80;99.90
5870;DHT22;2961;47.702;9.410;2023-07-02T08:08:19;18.80;99.90
5870;DHT22;2961;47.702;9.410;2023-07-02T08:10:46;18.90;99.90
5870;DHT22;2961;47.702;9.410;2023-07-02T08:13:16;19.00;99.90
5870;DHT22;2961;47.702;9.410;2023-07-02T08:15:44;19.00;99.90
5870;DHT22;2961;47.702;9.410;2023-07-02T08:18:10;19.10;99.90
5870;DHT22;2961;47.702;9.410;2023-07-02T08:20:38;19.10;99.90
5870;DHT22;2961;47.702;9.410;2023-07-02T08:23:05;19.30;99.90
5870;DHT22;2961;47.702;9.410;2023-07-02T08:25:32;19.40;99.90
5870;DHT22;2961;47.702;9.410;2023-07-02T08:27:59;19.50;99.90
5870;DHT22;2961;47.702;9.410;2023-07-02T08:30:27;19.50;99.90
5870;DHT22;2961;47.702;9.410;2023-07-02T08:32:54;19.50;99.90
5870;DHT22;2961;47.702;9.410;2023-07-02T08:35:21;19.60;99.90
5870;DHT22;2961;47.702;9.410;2023-07-02T08:37:48;19.80;99.90
5870;DHT22;2961;47.702;9.410;2023-07-02T08:40:18;19.90;99.90
5870;DHT22;2961;47.702;9.410;2023-07-02T08:42:45;20.00;99.90
5870;DHT22;2961;47.702;9.410;2023-07-02T08:45:14;20.20;99.90
5870;DHT22;2961;47.702;9.410;2023-07-02T08:47:43;20.30;99.90
5870;DHT22;2961;47.702;9.410;2023-07-02T08:50:11;20.30;99.90
5870;DHT22;2961;47.702;9.410;2023-07-02T08:52:38;20.20;99.90
5870;DHT22;2961;47.702;9.410;2023-07-02T08:55:06;20.20;99.90
5870;DHT22;2961;47.702;9.410;2023-07-02T08:57:34;20.10;99.90
5870;DHT22;2961;47.702;9.410;2023-07-02T09:00:05;20.10;99.90
5870;DHT22;2961;47.702;9.410;2023-07-02T09:02:33;20.10;99.90
5870;DHT22;2961;47.702;9.410;2023-07-02T09:05:02;19.90;99.90
5870;DHT22;2961;47.702;9.410;2023-07-02T09:07:29;19.80;99.90
5870;DHT22;2961;47.702;9.410;2023-07-02T09:09:56;19.70;99.90
5870;DHT22;2961;47.702;9.410;2023-07-02T09:12:24;19.80;99.90
5870;DHT22;2961;47.702;9.410;2023-07-02T09:14:55;19.70;99.90
5870;DHT22;2961;47.702;9.410;2023-07-02T09:17:27;19.80;99.90
5870;DHT22;2961;47.702;9.410;2023-07-02T09:19:54;19.80;99.90
5870;DHT22;2961;47.702;9.410;2023-07-02T09:22:22;19.90;99.90
5870;DHT22;2961;47.702;9.410;2023-07-02T09:24:53;20.10;99.90
5870;DHT22;2961;47.702;9.410;2023-07-02T09:27:20;20.40;99.90
5870;DHT22;2961;47.702;9.410;2023-07-02T09:29:50;20.70;99.90
5870;DHT22;2961;47.702;9.410;2023-07-02T09:32:24;20.90;99.90
5870;DHT22;2961;47.702;9.410;2023-07-02T09:34:53;21.10;99.90
5870;DHT22;2961;47.702;9.410;2023-07-02T09:37:21;21.30;99.90
5870;DHT22;2961;47.702;9.410;2023-07-02T09:39:50;21.60;99.90
5870;DHT22;2961;47.702;9.410;2023-07-02T09:42:18;21.90;99.90
5870;DHT22;2961;47.702;9.410;2023-07-02T09:44:46;22.20;99.90
5870;DHT22;2961;47.702;9.410;2023-07-02T09:47:15;22.40;99.90
5870;DHT22;2961;47.702;9.410;2023-07-02T09:49:49;22.40;99.90
5870;DHT22;2961;47.702;9.410;2023-07-02T09:52:16;22.50;99.90
5870;DHT22;2961;47.702;9.410;2023-07-02T09:54:45;22.60;99.90
5870;DHT22;2961;47.702;9.410;2023-07-02T09:57:12;22.70;99.90
5870;DHT22;2961;47.702;9.410;2023-07-02T09:59:39;22.90;99.90
5870;DHT22;2961;47.702;9.410;2023-07-02T10:02:08;22.80;99.90
5870;DHT22;2961;47.702;9.410;2023-07-02T10:04:41;22.70;99.90
5870;DHT22;2961;47.702;9.410;2023-07-02T10:07:09;22.50;99.90
5870;DHT22;2961;47.702;9.410;2023-07-02T10:09:38;22.50;99.90
5870;DHT22;2961;47.702;9.410;2023-07-02T10:12:22;22.70;99.90
5870;DHT22;2961;47.702;9.410;2023-07-02T10:14:51;23.20;99.90
5870;DHT22;2961;47.702;9.410;2023-07-02T10:17:26;24.10;99.90
5870;DHT22;2961;47.702;9.410;2023-07-02T10:19:54;24.80;99.90
5870;DHT22;2961;47.702;9.410;2023-07-02T10:22:21;25.40;99.90
5870;DHT22;2961;47.702;9.410;2023-07-02T10:24:55;25.90;99.90
5870;DHT22;2961;47.702;9.410;2023-07-02T10:27:35;26.10;98.80
5870;DHT22;2961;47.702;9.410;2023-07-02T10:30:03;25.90;97.30
5870;DHT22;2961;47.702;9.410;2023-07-02T10:32:30;25.70;97.80
5870;DHT22;2961;47.702;9.410;2023-07-02T10:34:58;25.60;98.00
5870;DHT22;2961;47.702;9.410;2023-07-02T10:37:35;25.00;97.40
5870;DHT22;2961;47.702;9.410;2023-07-02T10:40:03;24.90;97.80
5870;DHT22;2961;47.702;9.410;2023-07-02T10:42:33;24.70;97.30
5870;DHT22;2961;47.702;9.410;2023-07-02T10:45:00;24.50;98.90
5870;DHT22;2961;47.702;9.410;2023-07-02T10:47:28;24.30;99.50
5870;DHT22;2961;47.702;9.410;2023-07-02T10:49:55;24.00;98.90
5870;DHT22;2961;47.702;9.410;2023-07-02T10:52:22;23.90;99.50
5870;DHT22;2961;47.702;9.410;2023-07-02T10:54:48;23.80;99.90
5870;DHT22;2961;47.702;9.410;2023-07-02T10:57:18;23.50;99.80
5870;DHT22;2961;47.702;9.410;2023-07-02T10:59:47;23.80;99.90
5870;DHT22;2961;47.702;9.410;2023-07-02T11:02:14;24.00;99.60
5870;DHT22;2961;47.702;9.410;2023-07-02T11:04:41;24.20;99.60
5870;DHT22;2961;47.702;9.410;2023-07-02T11:07:10;24.40;99.70
5870;DHT22;2961;47.702;9.410;2023-07-02T11:09:37;24.30;98.80
5870;DHT22;2961;47.702;9.410;2023-07-02T11:12:04;24.30;99.90
5870;DHT22;2961;47.702;9.410;2023-07-02T11:14:32;24.40;99.90
5870;DHT22;2961;47.702;9.410;2023-07-02T11:17:03;24.50;99.80
5870;DHT22;2961;47.702;9.410;2023-07-02T11:19:31;24.60;98.30
5870;DHT22;2961;47.702;9.410;2023-07-02T11:21:58;24.50;98.60
5870;DHT22;2961;47.702;9.410;2023-07-02T11:24:30;24.40;98.80
5870;DHT22;2961;47.702;9.410;2023-07-02T11:26:57;24.70;99.10
5870;DHT22;2961;47.702;9.410;2023-07-02T11:29:25;24.70;98.30
5870;DHT22;2961;47.702;9.410;2023-07-02T11:31:52;24.60;97.30
5870;DHT22;2961;47.702;9.410;2023-07-02T11:34:21;24.60;98.50
5870;DHT22;2961;47.702;9.410;2023-07-02T11:36:49;24.60;97.90
5870;DHT22;2961;47.702;9.410;2023-07-02T11:39:19;24.70;98.00
5870;DHT22;2961;47.702;9.410;2023-07-02T11:41:46;24.60;97.80
5870;DHT22;2961;47.702;9.410;2023-07-02T11:44:14;24.40;97.30
5870;DHT22;2961;47.702;9.410;2023-07-02T11:46:41;24.20;97.80
5870;DHT22;2961;47.702;9.410;2023-07-02T11:49:07;24.10;97.90
5870;DHT22;2961;47.702;9.410;2023-07-02T11:51:36;24.10;98.10
5870;DHT22;2961;47.702;9.410;2023-07-02T11:54:04;24.10;98.00
5870;DHT22;2961;47.702;9.410;2023-07-02T11:56:31;24.10;96.90
5870;DHT22;2961;47.702;9.410;2023-07-02T11:58:58;23.90;98.00
5870;DHT22;2961;47.702;9.410;2023-07-02T12:01:25;23.80;98.00
5870;DHT22;2961;47.702;9.410;2023-07-02T12:03:52;23.80;98.40
5870;DHT22;2961;47.702;9.410;2023-07-02T12:06:19;23.80;98.40
5870;DHT22;2961;47.702;9.410;2023-07-02T12:08:47;23.90;99.10
5870;DHT22;2961;47.702;9.410;2023-07-02T12:11:13;23.90;98.70
5870;DHT22;2961;47.702;9.410;2023-07-02T12:13:41;24.00;98.20
5870;DHT22;2961;47.702;9.410;2023-07-02T12:16:08;23.90;97.90
5870;DHT22;2961;47.702;9.410;2023-07-02T12:18:34;24.00;97.60
5870;DHT22;2961;47.702;9.410;2023-07-02T12:21:01;24.10;96.70
5870;DHT22;2961;47.702;9.410;2023-07-02T12:23:28;24.10;98.30
5870;DHT22;2961;47.702;9.410;2023-07-02T12:25:56;24.20;97.30
5870;DHT22;2961;47.702;9.410;2023-07-02T12:28:44;24.30;98.50
5870;DHT22;2961;47.702;9.410;2023-07-02T12:31:11;24.40;97.70
5870;DHT22;2961;47.702;9.410;2023-07-02T12:33:38;24.60;96.30
5870;DHT22;2961;47.702;9.410;2023-07-02T12:36:05;24.70;96.00
5870;DHT22;2961;47.702;9.410;2023-07-02T12:38:32;24.80;96.30
5870;DHT22;2961;47.702;9.410;2023-07-02T12:41:00;24.80;97.10
5870;DHT22;2961;47.702;9.410;2023-07-02T12:43:27;24.70;95.40
5870;DHT22;2961;47.702;9.410;2023-07-02T12:45:54;24.70;96.40
5870;DHT22;2961;47.702;9.410;2023-07-02T12:48:21;24.60;94.90
5870;DHT22;2961;47.702;9.410;2023-07-02T12:50:54;24.60;96.10
5870;DHT22;2961;47.702;9.410;2023-07-02T12:53:21;24.80;96.40
5870;DHT22;2961;47.702;9.410;2023-07-02T12:55:48;24.90;95.70
5870;DHT22;2961;47.702;9.410;2023-07-02T12:58:16;24.90;94.80
5870;DHT22;2961;47.702;9.410;2023-07-02T13:00:43;25.10;95.80
5870;DHT22;2961;47.702;9.410;2023-07-02T13:03:11;25.00;94.70
5870;DHT22;2961;47.702;9.410;2023-07-02T13:05:39;25.00;95.10
5870;DHT22;2961;47.702;9.410;2023-07-02T13:08:06;24.90;95.20
5870;DHT22;2961;47.702;9.410;2023-07-02T13:10:33;24.90;95.00
5870;DHT22;2961;47.702;9.410;2023-07-02T13:13:00;25.00;95.20
5870;DHT22;2961;47.702;9.410;2023-07-02T13:15:28;25.10;94.50
5870;DHT22;2961;47.702;9.410;2023-07-02T13:17:55;25.10;95.20
5870;DHT22;2961;47.702;9.410;2023-07-02T13:20:22;25.10;94.40
5870;DHT22;2961;47.702;9.410;2023-07-02T13:22:49;25.00;94.60
5870;DHT22;2961;47.702;9.410;2023-07-02T13:25:15;25.10;95.30
5870;DHT22;2961;47.702;9.410;2023-07-02T13:27:42;25.10;94.70
5870;DHT22;2961;47.702;9.410;2023-07-02T13:30:09;25.10;94.90
5870;DHT22;2961;47.702;9.410;2023-07-02T13:32:37;25.10;94.90
5870;DHT22;2961;47.702;9.410;2023-07-02T13:35:05;25.20;94.40
5870;DHT22;2961;47.702;9.410;2023-07-02T13:37:32;25.30;94.50
5870;DHT22;2961;47.702;9.410;2023-07-02T13:39:59;25.30;93.80
5870;DHT22;2961;47.702;9.410;2023-07-02T13:42:25;25.30;93.20
5870;DHT22;2961;47.702;9.410;2023-07-02T13:44:52;25.20;93.50
5870;DHT22;2961;47.702;9.410;2023-07-02T13:47:19;25.40;93.60
5870;DHT22;2961;47.702;9.410;2023-07-02T13:49:47;25.40;92.90
5870;DHT22;2961;47.702;9.410;2023-07-02T13:52:14;25.30;92.70
5870;DHT22;2961;47.702;9.410;2023-07-02T13:54:41;25.10;92.10
5870;DHT22;2961;47.702;9.410;2023-07-02T13:57:07;25.10;93.70
5870;DHT22;2961;47.702;9.410;2023-07-02T13:59:35;25.20;94.30
5870;DHT22;2961;47.702;9.410;2023-07-02T14:02:02;25.20;92.90
5870;DHT22;2961;47.702;9.410;2023-07-02T14:04:29;25.10;91.40
5870;DHT22;2961;47.702;9.410;2023-07-02T14:06:56;25.10;93.00
5870;DHT22;2961;47.702;9.410;2023-07-02T14:09:23;25.10;93.10
5870;DHT22;2961;47.702;9.410;2023-07-02T14:11:50;25.20;92.90
5870;DHT22;2961;47.702;9.410;2023-07-02T14:14:16;25.30;92.30
5870;DHT22;2961;47.702;9.410;2023-07-02T14:16:44;25.10;91.50
5870;DHT22;2961;47.702;9.410;2023-07-02T14:19:11;25.00;91.20
5870;DHT22;2961;47.702;9.410;2023-07-02T14:21:38;24.90;91.80
5870;DHT22;2961;47.702;9.410;2023-07-02T14:24:05;25.00;91.80
5870;DHT22;2961;47.702;9.410;2023-07-02T14:26:32;24.90;91.50
5870;DHT22;2961;47.702;9.410;2023-07-02T14:28:59;25.00;92.30
5870;DHT22;2961;47.702;9.410;2023-07-02T14:31:25;25.00;92.20
5870;DHT22;2961;47.702;9.410;2023-07-02T14:33:54;24.90;91.50
5870;DHT22;2961;47.702;9.410;2023-07-02T14:36:20;25.00;92.30
5870;DHT22;2961;47.702;9.410;2023-07-02T14:38:47;24.90;91.10
5870;DHT22;2961;47.702;9.410;2023-07-02T14:41:14;24.90;91.80
5870;DHT22;2961;47.702;9.410;2023-07-02T14:43:41;24.80;90.60
5870;DHT22;2961;47.702;9.410;2023-07-02T14:46:07;24.70;91.10
5870;DHT22;2961;47.702;9.410;2023-07-02T14:48:34;24.70;91.80
5870;DHT22;2961;47.702;9.410;2023-07-02T14:51:03;24.90;92.60
5870;DHT22;2961;47.702;9.410;2023-07-02T14:53:30;24.90;91.50
5870;DHT22;2961;47.702;9.410;2023-07-02T14:55:59;24.90;92.50
5870;DHT22;2961;47.702;9.410;2023-07-02T14:58:27;25.00;90.80
5870;DHT22;2961;47.702;9.410;2023-07-02T15:00:56;25.10;91.20
5870;DHT22;2961;47.702;9.410;2023-07-02T15:03:24;24.90;90.40
5870;DHT22;2961;47.702;9.410;2023-07-02T15:05:51;24.90;90.80
5870;DHT22;2961;47.702;9.410;2023-07-02T15:08:21;24.90;91.80
5870;DHT22;2961;47.702;9.410;2023-07-02T15:10:49;25.10;91.20
5870;DHT22;2961;47.702;9.410;2023-07-02T15:13:16;25.20;90.30
5870;DHT22;2961;47.702;9.410;2023-07-02T15:15:45;25.20;90.90
5870;DHT22;2961;47.702;9.410;2023-07-02T15:18:12;25.30;91.90
5870;DHT22;2961;47.702;9.410;2023-07-02T15:20:39;25.30;91.40
5870;DHT22;2961;47.702;9.410;2023-07-02T15:23:07;25.30;91.10
5870;DHT22;2961;47.702;9.410;2023-07-02T15:25:35;25.20;91.80
5870;DHT22;2961;47.702;9.410;2023-07-02T15:28:02;25.20;90.20
5870;DHT22;2961;47.702;9.410;2023-07-02T15:30:29;25.20;90.80
5870;DHT22;2961;47.702;9.410;2023-07-02T15:32:56;25.20;90.40
5870;DHT22;2961;47.702;9.410;2023-07-02T15:35:23;25.20;91.30
5870;DHT22;2961;47.702;9.410;2023-07-02T15:37:50;25.30;91.30
5870;DHT22;2961;47.702;9.410;2023-07-02T15:40:16;25.20;90.70
5870;DHT22;2961;47.702;9.410;2023-07-02T15:42:45;25.10;89.80
5870;DHT22;2961;47.702;9.410;2023-07-02T15:45:11;25.10;91.20
5870;DHT22;2961;47.702;9.410;2023-07-02T15:47:38;25.10;91.50
5870;DHT22;2961;47.702;9.410;2023-07-02T15:50:05;25.10;91.00
5870;DHT22;2961;47.702;9.410;2023-07-02T15:52:32;24.90;91.00
5870;DHT22;2961;47.702;9.410;2023-07-02T15:54:59;24.80;91.30
5870;DHT22;2961;47.702;9.410;2023-07-02T15:57:26;24.80;92.00
5870;DHT22;2961;47.702;9.410;2023-07-02T15:59:54;24.90;92.20
5870;DHT22;2961;47.702;9.410;2023-07-02T16:02:21;24.90;92.10
5870;DHT22;2961;47.702;9.410;2023-07-02T16:04:48;24.90;91.70